sensor_id;sensor_type;location;lat;lon;timestamp;P1;durP1;ratioP1;P2;durP2;ratioP2
48635;SDS011;34429;52.332;5.614;2022-12-05T00:01:26;36.33;;;16.25;;
48635;SDS011;34429;52.332;5.614;2022-12-05T00:03:56;35.63;;;15.00;;
48635;SDS011;34429;52.332;5.614;2022-12-05T00:06:30;33.38;;;15.65;;
48635;SDS011;34429;52.332;5.614;2022-12-05T00:09:00;41.40;;;16.38;;
48635;SDS011;34429;52.332;5.614;2022-12-05T00:11:31;36.78;;;15.95;;
48635;SDS011;34429;52.332;5.614;2022-12-05T00:14:01;35.30;;;15.50;;
48635;SDS011;34429;52.332;5.614;2022-12-05T00:16:31;35.47;;;15.07;;
48635;SDS011;34429;52.332;5.614;2022-12-05T00:21:33;36.87;;;15.10;;
48635;SDS011;34429;52.332;5.614;2022-12-05T00:24:03;33.65;;;14.07;;
48635;SDS011;34429;52.332;5.614;2022-12-05T00:26:34;36.75;;;16.90;;
48635;SDS011;34429;52.332;5.614;2022-12-05T00:29:02;39.07;;;17.33;;
48635;SDS011;34429;52.332;5.614;2022-12-05T00:31:31;37.97;;;15.43;;
48635;SDS011;34429;52.332;5.614;2022-12-05T00:34:00;30.88;;;13.40;;
48635;SDS011;34429;52.332;5.614;2022-12-05T00:36:32;39.95;;;16.65;;
48635;SDS011;34429;52.332;5.614;2022-12-05T00:39:02;38.42;;;15.63;;
48635;SDS011;34429;52.332;5.614;2022-12-05T00:41:32;34.10;;;15.90;;
48635;SDS011;34429;52.332;5.614;2022-12-05T00:44:01;41.22;;;16.50;;
48635;SDS011;34429;52.332;5.614;2022-12-05T00:46:31;36.40;;;15.50;;
48635;SDS011;34429;52.332;5.614;2022-12-05T00:49:02;40.78;;;16.30;;
48635;SDS011;34429;52.332;5.614;2022-12-05T00:51:35;39.58;;;16.00;;
48635;SDS011;34429;52.332;5.614;2022-12-05T00:54:06;43.47;;;16.42;;
48635;SDS011;34429;52.332;5.614;2022-12-05T00:56:36;34.65;;;15.32;;
48635;SDS011;34429;52.332;5.614;2022-12-05T00:59:05;35.53;;;16.08;;
48635;SDS011;34429;52.332;5.614;2022-12-05T01:01:34;35.28;;;16.00;;
48635;SDS011;34429;52.332;5.614;2022-12-05T01:04:05;40.60;;;16.25;;
48635;SDS011;34429;52.332;5.614;2022-12-05T01:06:37;38.55;;;16.15;;
48635;SDS011;34429;52.332;5.614;2022-12-05T01:09:06;33.05;;;15.32;;
48635;SDS011;34429;52.332;5.614;2022-12-05T01:11:35;40.88;;;16.30;;
48635;SDS011;34429;52.332;5.614;2022-12-05T01:14:04;39.03;;;16.45;;
48635;SDS011;34429;52.332;5.614;2022-12-05T01:16:33;38.13;;;15.53;;
48635;SDS011;34429;52.332;5.614;2022-12-05T01:19:06;35.30;;;15.75;;
48635;SDS011;34429;52.332;5.614;2022-12-05T01:21:40;32.97;;;15.75;;
48635;SDS011;34429;52.332;5.614;2022-12-05T01:24:10;42.80;;;17.15;;
48635;SDS011;34429;52.332;5.614;2022-12-05T01:29:07;33.63;;;14.98;;
48635;SDS011;34429;52.332;5.614;2022-12-05T01:31:36;39.03;;;17.13;;
48635;SDS011;34429;52.332;5.614;2022-12-05T01:34:05;31.30;;;13.77;;
48635;SDS011;34429;52.332;5.614;2022-12-05T01:36:35;39.45;;;15.45;;
48635;SDS011;34429;52.332;5.614;2022-12-05T01:39:06;37.97;;;15.90;;
48635;SDS011;34429;52.332;5.614;2022-12-05T01:41:36;34.92;;;15.50;;
48635;SDS011;34429;52.332;5.614;2022-12-05T01:44:56;37.25;;;16.05;;
48635;SDS011;34429;52.332;5.614;2022-12-05T01:47:10;38.08;;;15.57;;
48635;SDS011;34429;52.332;5.614;2022-12-05T01:49:39;33.92;;;15.23;;
48635;SDS011;34429;52.332;5.614;2022-12-05T01:52:11;40.42;;;16.75;;
48635;SDS011;34429;52.332;5.614;2022-12-05T01:54:46;36.47;;;14.93;;
48635;SDS011;34429;52.332;5.614;2022-12-05T01:57:17;42.40;;;16.58;;
48635;SDS011;34429;52.332;5.614;2022-12-05T01:59:46;37.17;;;14.53;;
48635;SDS011;34429;52.332;5.614;2022-12-05T02:02:17;35.15;;;15.73;;
48635;SDS011;34429;52.332;5.614;2022-12-05T02:04:47;39.70;;;14.63;;
48635;SDS011;34429;52.332;5.614;2022-12-05T02:07:23;43.80;;;15.32;;
48635;SDS011;34429;52.332;5.614;2022-12-05T02:09:54;37.08;;;15.85;;
48635;SDS011;34429;52.332;5.614;2022-12-05T02:12:23;36.83;;;16.38;;
48635;SDS011;34429;52.332;5.614;2022-12-05T02:14:56;38.20;;;15.20;;
48635;SDS011;34429;52.332;5.614;2022-12-05T02:17:34;34.63;;;15.85;;
48635;SDS011;34429;52.332;5.614;2022-12-05T02:20:21;38.45;;;16.70;;
48635;SDS011;34429;52.332;5.614;2022-12-05T02:23:04;41.65;;;16.77;;
48635;SDS011;34429;52.332;5.614;2022-12-05T02:26:04;35.38;;;15.98;;
48635;SDS011;34429;52.332;5.614;2022-12-05T02:28:55;37.47;;;15.70;;
48635;SDS011;34429;52.332;5.614;2022-12-05T02:31:44;41.45;;;17.42;;
48635;SDS011;34429;52.332;5.614;2022-12-05T02:34:19;34.63;;;14.93;;
48635;SDS011;34429;52.332;5.614;2022-12-05T02:36:55;36.97;;;15.00;;
48635;SDS011;34429;52.332;5.614;2022-12-05T02:39:31;32.08;;;14.95;;
48635;SDS011;34429;52.332;5.614;2022-12-05T02:42:08;36.40;;;14.60;;
48635;SDS011;34429;52.332;5.614;2022-12-05T02:44:41;37.65;;;16.35;;
48635;SDS011;34429;52.332;5.614;2022-12-05T02:47:18;32.45;;;14.93;;
48635;SDS011;34429;52.332;5.614;2022-12-05T02:49:50;35.42;;;15.70;;
48635;SDS011;34429;52.332;5.614;2022-12-05T02:52:20;36.92;;;15.98;;
48635;SDS011;34429;52.332;5.614;2022-12-05T02:54:52;36.72;;;14.90;;
48635;SDS011;34429;52.332;5.614;2022-12-05T02:57:21;37.80;;;15.15;;
48635;SDS011;34429;52.332;5.614;2022-12-05T02:59:50;34.38;;;14.93;;
48635;SDS011;34429;52.332;5.614;2022-12-05T03:02:25;30.83;;;12.88;;
48635;SDS011;34429;52.332;5.614;2022-12-05T03:04:57;33.22;;;13.93;;
48635;SDS011;34429;52.332;5.614;2022-12-05T03:07:31;31.70;;;13.65;;
48635;SDS011;34429;52.332;5.614;2022-12-05T03:12:32;28.48;;;13.55;;
48635;SDS011;34429;52.332;5.614;2022-12-05T03:15:07;29.10;;;14.45;;
48635;SDS011;34429;52.332;5.614;2022-12-05T03:17:46;33.33;;;13.35;;
48635;SDS011;34429;52.332;5.614;2022-12-05T03:20:18;30.52;;;13.88;;
48635;SDS011;34429;52.332;5.614;2022-12-05T03:22:52;32.50;;;13.85;;
48635;SDS011;34429;52.332;5.614;2022-12-05T03:25:26;33.63;;;15.88;;
48635;SDS011;34429;52.332;5.614;2022-12-05T03:28:03;32.80;;;15.90;;
48635;SDS011;34429;52.332;5.614;2022-12-05T03:30:34;32.72;;;14.82;;
48635;SDS011;34429;52.332;5.614;2022-12-05T03:33:09;31.05;;;13.57;;
48635;SDS011;34429;52.332;5.614;2022-12-05T03:35:42;34.75;;;13.15;;
48635;SDS011;34429;52.332;5.614;2022-12-05T03:38:19;34.38;;;15.52;;
48635;SDS011;34429;52.332;5.614;2022-12-05T03:40:54;40.17;;;15.85;;
48635;SDS011;34429;52.332;5.614;2022-12-05T03:43:33;34.47;;;14.65;;
48635;SDS011;34429;52.332;5.614;2022-12-05T03:46:08;38.45;;;15.18;;
48635;SDS011;34429;52.332;5.614;2022-12-05T03:48:46;32.20;;;14.05;;
48635;SDS011;34429;52.332;5.614;2022-12-05T03:51:19;32.38;;;14.95;;
48635;SDS011;34429;52.332;5.614;2022-12-05T03:53:52;31.60;;;15.15;;
48635;SDS011;34429;52.332;5.614;2022-12-05T03:56:26;33.20;;;15.63;;
48635;SDS011;34429;52.332;5.614;2022-12-05T03:59:03;35.70;;;16.60;;
48635;SDS011;34429;52.332;5.614;2022-12-05T04:01:36;38.25;;;16.15;;
48635;SDS011;34429;52.332;5.614;2022-12-05T04:04:11;31.33;;;15.10;;
48635;SDS011;34429;52.332;5.614;2022-12-05T04:06:43;30.52;;;14.77;;
48635;SDS011;34429;52.332;5.614;2022-12-05T04:09:16;38.97;;;16.67;;
48635;SDS011;34429;52.332;5.614;2022-12-05T04:11:49;39.00;;;17.77;;
48635;SDS011;34429;52.332;5.614;2022-12-05T04:14:22;39.05;;;16.50;;
48635;SDS011;34429;52.332;5.614;2022-12-05T04:16:55;34.10;;;15.90;;
48635;SDS011;34429;52.332;5.614;2022-12-05T04:19:30;40.00;;;18.02;;
48635;SDS011;34429;52.332;5.614;2022-12-05T04:22:16;35.13;;;16.60;;
48635;SDS011;34429;52.332;5.614;2022-12-05T04:24:45;37.60;;;16.88;;
48635;SDS011;34429;52.332;5.614;2022-12-05T04:27:28;35.80;;;17.02;;
48635;SDS011;34429;52.332;5.614;2022-12-05T04:30:07;38.05;;;16.20;;
48635;SDS011;34429;52.332;5.614;2022-12-05T04:32:39;33.60;;;15.93;;
48635;SDS011;34429;52.332;5.614;2022-12-05T04:35:16;41.75;;;16.17;;
48635;SDS011;34429;52.332;5.614;2022-12-05T04:37:51;46.13;;;18.05;;
48635;SDS011;34429;52.332;5.614;2022-12-05T04:40:25;35.45;;;16.15;;
48635;SDS011;34429;52.332;5.614;2022-12-05T04:43:00;33.70;;;16.05;;
48635;SDS011;34429;52.332;5.614;2022-12-05T04:45:31;39.15;;;16.75;;
48635;SDS011;34429;52.332;5.614;2022-12-05T04:48:02;38.88;;;17.10;;
48635;SDS011;34429;52.332;5.614;2022-12-05T04:50:36;35.95;;;15.93;;
48635;SDS011;34429;52.332;5.614;2022-12-05T04:53:06;35.40;;;16.40;;
48635;SDS011;34429;52.332;5.614;2022-12-05T04:55:39;43.38;;;17.70;;
48635;SDS011;34429;52.332;5.614;2022-12-05T04:58:11;35.75;;;15.63;;
48635;SDS011;34429;52.332;5.614;2022-12-05T05:00:45;35.97;;;14.88;;
48635;SDS011;34429;52.332;5.614;2022-12-05T05:03:18;39.08;;;16.27;;
48635;SDS011;34429;52.332;5.614;2022-12-05T05:05:54;35.72;;;15.82;;
48635;SDS011;34429;52.332;5.614;2022-12-05T05:08:24;41.45;;;16.38;;
48635;SDS011;34429;52.332;5.614;2022-12-05T05:10:59;40.50;;;16.52;;
48635;SDS011;34429;52.332;5.614;2022-12-05T05:13:31;39.20;;;17.50;;
48635;SDS011;34429;52.332;5.614;2022-12-05T05:15:59;35.92;;;16.83;;
48635;SDS011;34429;52.332;5.614;2022-12-05T05:18:27;35.95;;;16.73;;
48635;SDS011;34429;52.332;5.614;2022-12-05T05:20:58;37.33;;;15.95;;
48635;SDS011;34429;52.332;5.614;2022-12-05T05:23:26;42.05;;;18.05;;
48635;SDS011;34429;52.332;5.614;2022-12-05T05:25:55;43.10;;;18.15;;
48635;SDS011;34429;52.332;5.614;2022-12-05T05:28:23;36.00;;;16.73;;
48635;SDS011;34429;52.332;5.614;2022-12-05T05:30:52;40.25;;;16.83;;
48635;SDS011;34429;52.332;5.614;2022-12-05T05:33:20;44.28;;;17.98;;
48635;SDS011;34429;52.332;5.614;2022-12-05T05:35:48;41.28;;;16.52;;
48635;SDS011;34429;52.332;5.614;2022-12-05T05:38:19;35.75;;;15.80;;
48635;SDS011;34429;52.332;5.614;2022-12-05T05:40:47;36.67;;;17.00;;
48635;SDS011;34429;52.332;5.614;2022-12-05T05:43:16;42.03;;;18.50;;
48635;SDS011;34429;52.332;5.614;2022-12-05T05:45:44;39.25;;;17.02;;
48635;SDS011;34429;52.332;5.614;2022-12-05T05:48:12;37.22;;;16.77;;
48635;SDS011;34429;52.332;5.614;2022-12-05T05:50:41;37.20;;;15.70;;
48635;SDS011;34429;52.332;5.614;2022-12-05T05:53:09;39.30;;;16.98;;
48635;SDS011;34429;52.332;5.614;2022-12-05T05:55:40;39.38;;;17.40;;
48635;SDS011;34429;52.332;5.614;2022-12-05T05:58:09;37.20;;;16.23;;
48635;SDS011;34429;52.332;5.614;2022-12-05T06:00:37;39.88;;;17.00;;
48635;SDS011;34429;52.332;5.614;2022-12-05T06:03:05;39.85;;;17.02;;
48635;SDS011;34429;52.332;5.614;2022-12-05T06:05:34;42.23;;;17.73;;
48635;SDS011;34429;52.332;5.614;2022-12-05T06:08:03;41.10;;;16.63;;
48635;SDS011;34429;52.332;5.614;2022-12-05T06:10:31;43.65;;;16.65;;
48635;SDS011;34429;52.332;5.614;2022-12-05T06:13:02;37.72;;;15.45;;
48635;SDS011;34429;52.332;5.614;2022-12-05T06:15:30;37.15;;;16.23;;
48635;SDS011;34429;52.332;5.614;2022-12-05T06:17:59;40.10;;;16.98;;
48635;SDS011;34429;52.332;5.614;2022-12-05T06:20:27;38.30;;;16.02;;
48635;SDS011;34429;52.332;5.614;2022-12-05T06:22:55;34.80;;;15.32;;
48635;SDS011;34429;52.332;5.614;2022-12-05T06:25:24;39.78;;;15.32;;
48635;SDS011;34429;52.332;5.614;2022-12-05T06:27:52;36.85;;;14.98;;
48635;SDS011;34429;52.332;5.614;2022-12-05T06:30:23;35.13;;;14.48;;
48635;SDS011;34429;52.332;5.614;2022-12-05T06:32:51;36.10;;;14.77;;
48635;SDS011;34429;52.332;5.614;2022-12-05T06:35:19;29.80;;;13.40;;
48635;SDS011;34429;52.332;5.614;2022-12-05T06:37:48;29.20;;;13.75;;
48635;SDS011;34429;52.332;5.614;2022-12-05T06:40:17;27.75;;;12.95;;
48635;SDS011;34429;52.332;5.614;2022-12-05T06:42:45;31.70;;;14.30;;
48635;SDS011;34429;52.332;5.614;2022-12-05T06:45:13;22.58;;;12.88;;
48635;SDS011;34429;52.332;5.614;2022-12-05T06:47:45;24.57;;;12.30;;
48635;SDS011;34429;52.332;5.614;2022-12-05T06:50:13;25.33;;;12.38;;
48635;SDS011;34429;52.332;5.614;2022-12-05T06:52:41;26.67;;;11.77;;
48635;SDS011;34429;52.332;5.614;2022-12-05T06:55:10;24.63;;;11.32;;
48635;SDS011;34429;52.332;5.614;2022-12-05T06:57:38;24.25;;;11.85;;
48635;SDS011;34429;52.332;5.614;2022-12-05T07:00:07;22.30;;;11.43;;
48635;SDS011;34429;52.332;5.614;2022-12-05T07:02:51;22.98;;;11.95;;
48635;SDS011;34429;52.332;5.614;2022-12-05T07:05:20;23.90;;;12.13;;
48635;SDS011;34429;52.332;5.614;2022-12-05T07:07:48;23.55;;;11.68;;
48635;SDS011;34429;52.332;5.614;2022-12-05T07:10:17;25.63;;;11.77;;
48635;SDS011;34429;52.332;5.614;2022-12-05T07:12:45;28.37;;;11.83;;
48635;SDS011;34429;52.332;5.614;2022-12-05T07:15:14;21.23;;;11.95;;
48635;SDS011;34429;52.332;5.614;2022-12-05T07:17:42;23.27;;;12.20;;
48635;SDS011;34429;52.332;5.614;2022-12-05T07:20:13;25.65;;;11.35;;
48635;SDS011;34429;52.332;5.614;2022-12-05T07:22:43;24.67;;;12.38;;
48635;SDS011;34429;52.332;5.614;2022-12-05T07:25:11;23.75;;;11.52;;
48635;SDS011;34429;52.332;5.614;2022-12-05T07:27:41;22.27;;;11.98;;
48635;SDS011;34429;52.332;5.614;2022-12-05T07:30:09;21.05;;;11.25;;
48635;SDS011;34429;52.332;5.614;2022-12-05T07:32:38;22.85;;;11.88;;
48635;SDS011;34429;52.332;5.614;2022-12-05T07:35:07;24.10;;;12.05;;
48635;SDS011;34429;52.332;5.614;2022-12-05T07:37:38;20.40;;;12.10;;
48635;SDS011;34429;52.332;5.614;2022-12-05T07:40:07;22.13;;;11.48;;
48635;SDS011;34429;52.332;5.614;2022-12-05T07:42:36;20.92;;;11.05;;
48635;SDS011;34429;52.332;5.614;2022-12-05T07:45:05;22.00;;;10.93;;
48635;SDS011;34429;52.332;5.614;2022-12-05T07:47:34;21.10;;;10.30;;
48635;SDS011;34429;52.332;5.614;2022-12-05T07:50:03;19.42;;;10.18;;
48635;SDS011;34429;52.332;5.614;2022-12-05T07:52:32;21.15;;;10.95;;
48635;SDS011;34429;52.332;5.614;2022-12-05T07:55:03;17.33;;;10.00;;
48635;SDS011;34429;52.332;5.614;2022-12-05T07:57:32;23.33;;;9.80;;
48635;SDS011;34429;52.332;5.614;2022-12-05T08:00:01;19.48;;;9.95;;
48635;SDS011;34429;52.332;5.614;2022-12-05T08:02:31;22.83;;;10.52;;
48635;SDS011;34429;52.332;5.614;2022-12-05T08:04:59;17.53;;;9.60;;
48635;SDS011;34429;52.332;5.614;2022-12-05T08:07:28;19.73;;;9.57;;
48635;SDS011;34429;52.332;5.614;2022-12-05T08:09:56;18.52;;;9.13;;
48635;SDS011;34429;52.332;5.614;2022-12-05T08:12:27;16.27;;;8.57;;
48635;SDS011;34429;52.332;5.614;2022-12-05T08:14:55;15.15;;;9.27;;
48635;SDS011;34429;52.332;5.614;2022-12-05T08:17:24;14.55;;;8.10;;
48635;SDS011;34429;52.332;5.614;2022-12-05T08:19:52;12.30;;;7.45;;
48635;SDS011;34429;52.332;5.614;2022-12-05T08:22:20;13.05;;;7.53;;
48635;SDS011;34429;52.332;5.614;2022-12-05T08:24:49;14.55;;;8.05;;
48635;SDS011;34429;52.332;5.614;2022-12-05T08:27:17;12.05;;;7.22;;
48635;SDS011;34429;52.332;5.614;2022-12-05T08:29:48;12.38;;;6.95;;
48635;SDS011;34429;52.332;5.614;2022-12-05T08:32:16;10.52;;;7.00;;
48635;SDS011;34429;52.332;5.614;2022-12-05T08:34:45;11.45;;;6.65;;
48635;SDS011;34429;52.332;5.614;2022-12-05T08:37:13;10.68;;;6.43;;
48635;SDS011;34429;52.332;5.614;2022-12-05T08:39:41;11.55;;;6.47;;
48635;SDS011;34429;52.332;5.614;2022-12-05T08:42:10;11.63;;;7.10;;
48635;SDS011;34429;52.332;5.614;2022-12-05T08:44:38;15.13;;;7.35;;
48635;SDS011;34429;52.332;5.614;2022-12-05T08:47:09;14.82;;;6.80;;
48635;SDS011;34429;52.332;5.614;2022-12-05T08:49:37;10.35;;;5.80;;
48635;SDS011;34429;52.332;5.614;2022-12-05T08:52:05;13.40;;;7.18;;
48635;SDS011;34429;52.332;5.614;2022-12-05T08:54:34;10.55;;;6.72;;
48635;SDS011;34429;52.332;5.614;2022-12-05T08:57:02;10.45;;;6.32;;
48635;SDS011;34429;52.332;5.614;2022-12-05T08:59:31;11.18;;;6.07;;
48635;SDS011;34429;52.332;5.614;2022-12-05T09:01:59;11.90;;;6.80;;
48635;SDS011;34429;52.332;5.614;2022-12-05T09:04:30;11.87;;;6.27;;
48635;SDS011;34429;52.332;5.614;2022-12-05T09:07:00;11.18;;;6.35;;
48635;SDS011;34429;52.332;5.614;2022-12-05T09:09:28;9.98;;;6.53;;
48635;SDS011;34429;52.332;5.614;2022-12-05T09:11:57;11.43;;;5.88;;
48635;SDS011;34429;52.332;5.614;2022-12-05T09:14:25;9.30;;;5.20;;
48635;SDS011;34429;52.332;5.614;2022-12-05T09:16:57;9.60;;;5.25;;
48635;SDS011;34429;52.332;5.614;2022-12-05T09:19:26;12.15;;;6.38;;
48635;SDS011;34429;52.332;5.614;2022-12-05T09:21:58;10.68;;;5.60;;
48635;SDS011;34429;52.332;5.614;2022-12-05T09:24:26;7.78;;;4.75;;
48635;SDS011;34429;52.332;5.614;2022-12-05T09:26:54;6.75;;;4.75;;
48635;SDS011;34429;52.332;5.614;2022-12-05T09:29:22;8.05;;;4.78;;
48635;SDS011;34429;52.332;5.614;2022-12-05T09:31:53;8.05;;;4.93;;
48635;SDS011;34429;52.332;5.614;2022-12-05T09:34:21;7.65;;;3.97;;
48635;SDS011;34429;52.332;5.614;2022-12-05T09:36:52;7.10;;;4.15;;
48635;SDS011;34429;52.332;5.614;2022-12-05T09:39:22;5.55;;;3.38;;
48635;SDS011;34429;52.332;5.614;2022-12-05T09:47:46;5.18;;;3.20;;
48635;SDS011;34429;52.332;5.614;2022-12-05T09:50:23;12.98;;;5.50;;
48635;SDS011;34429;52.332;5.614;2022-12-05T09:55:50;5.55;;;3.10;;
48635;SDS011;34429;52.332;5.614;2022-12-05T09:58:25;7.03;;;4.15;;
48635;SDS011;34429;52.332;5.614;2022-12-05T10:00:58;6.55;;;3.85;;
48635;SDS011;34429;52.332;5.614;2022-12-05T10:03:34;8.40;;;3.97;;
48635;SDS011;34429;52.332;5.614;2022-12-05T10:06:11;5.78;;;3.95;;
48635;SDS011;34429;52.332;5.614;2022-12-05T10:08:50;7.72;;;3.78;;
48635;SDS011;34429;52.332;5.614;2022-12-05T10:11:30;8.35;;;3.67;;
48635;SDS011;34429;52.332;5.614;2022-12-05T10:14:04;5.43;;;3.20;;
48635;SDS011;34429;52.332;5.614;2022-12-05T10:16:40;9.82;;;4.53;;
48635;SDS011;34429;52.332;5.614;2022-12-05T10:19:15;7.85;;;4.15;;
48635;SDS011;34429;52.332;5.614;2022-12-05T10:21:50;8.02;;;4.28;;
48635;SDS011;34429;52.332;5.614;2022-12-05T10:24:27;8.35;;;4.35;;
48635;SDS011;34429;52.332;5.614;2022-12-05T10:26:59;7.93;;;4.40;;
48635;SDS011;34429;52.332;5.614;2022-12-05T10:29:32;7.80;;;4.43;;
48635;SDS011;34429;52.332;5.614;2022-12-05T10:32:05;8.20;;;5.10;;
48635;SDS011;34429;52.332;5.614;2022-12-05T10:34:43;7.68;;;4.45;;
48635;SDS011;34429;52.332;5.614;2022-12-05T10:37:13;7.95;;;4.65;;
48635;SDS011;34429;52.332;5.614;2022-12-05T10:39:46;9.10;;;5.15;;
48635;SDS011;34429;52.332;5.614;2022-12-05T10:42:24;8.57;;;5.05;;
48635;SDS011;34429;52.332;5.614;2022-12-05T10:44:56;8.93;;;4.97;;
48635;SDS011;34429;52.332;5.614;2022-12-05T10:47:28;7.75;;;4.82;;
48635;SDS011;34429;52.332;5.614;2022-12-05T10:49:58;11.75;;;5.22;;
48635;SDS011;34429;52.332;5.614;2022-12-05T10:52:30;7.47;;;4.28;;
48635;SDS011;34429;52.332;5.614;2022-12-05T10:55:02;8.43;;;4.10;;
48635;SDS011;34429;52.332;5.614;2022-12-05T10:57:33;8.35;;;4.78;;
48635;SDS011;34429;52.332;5.614;2022-12-05T11:00:08;6.78;;;3.92;;
48635;SDS011;34429;52.332;5.614;2022-12-05T11:02:39;9.57;;;4.55;;
48635;SDS011;34429;52.332;5.614;2022-12-05T11:05:09;8.93;;;4.45;;
48635;SDS011;34429;52.332;5.614;2022-12-05T11:07:44;9.15;;;5.07;;
48635;SDS011;34429;52.332;5.614;2022-12-05T11:10:21;8.25;;;4.80;;
48635;SDS011;34429;52.332;5.614;2022-12-05T11:12:52;11.75;;;5.50;;
48635;SDS011;34429;52.332;5.614;2022-12-05T11:15:23;11.40;;;4.78;;
48635;SDS011;34429;52.332;5.614;2022-12-05T11:17:54;8.85;;;4.78;;
48635;SDS011;34429;52.332;5.614;2022-12-05T11:20:32;10.93;;;5.57;;
48635;SDS011;34429;52.332;5.614;2022-12-05T11:23:15;10.10;;;5.93;;
48635;SDS011;34429;52.332;5.614;2022-12-05T11:25:55;9.82;;;5.22;;
48635;SDS011;34429;52.332;5.614;2022-12-05T11:28:32;10.75;;;5.13;;
48635;SDS011;34429;52.332;5.614;2022-12-05T11:31:03;8.80;;;4.82;;
48635;SDS011;34429;52.332;5.614;2022-12-05T11:33:33;10.05;;;5.38;;
48635;SDS011;34429;52.332;5.614;2022-12-05T11:36:04;8.85;;;4.63;;
48635;SDS011;34429;52.332;5.614;2022-12-05T11:38:39;8.27;;;4.65;;
48635;SDS011;34429;52.332;5.614;2022-12-05T11:41:17;9.45;;;5.25;;
48635;SDS011;34429;52.332;5.614;2022-12-05T11:44:09;11.35;;;5.55;;
48635;SDS011;34429;52.332;5.614;2022-12-05T11:46:52;9.15;;;4.97;;
48635;SDS011;34429;52.332;5.614;2022-12-05T11:49:35;8.75;;;5.25;;
48635;SDS011;34429;52.332;5.614;2022-12-05T11:52:19;10.15;;;5.55;;
48635;SDS011;34429;52.332;5.614;2022-12-05T11:55:00;9.05;;;4.93;;
48635;SDS011;34429;52.332;5.614;2022-12-05T11:57:48;10.55;;;5.03;;
48635;SDS011;34429;52.332;5.614;2022-12-05T12:00:29;12.80;;;5.65;;
48635;SDS011;34429;52.332;5.614;2022-12-05T12:06:06;12.88;;;5.82;;
48635;SDS011;34429;52.332;5.614;2022-12-05T12:08:46;9.73;;;5.60;;
48635;SDS011;34429;52.332;5.614;2022-12-05T12:11:25;12.82;;;6.40;;
48635;SDS011;34429;52.332;5.614;2022-12-05T12:14:04;13.50;;;6.95;;
48635;SDS011;34429;52.332;5.614;2022-12-05T12:16:44;9.93;;;5.88;;
48635;SDS011;34429;52.332;5.614;2022-12-05T12:22:20;12.77;;;6.80;;
48635;SDS011;34429;52.332;5.614;2022-12-05T12:25:04;9.50;;;5.88;;
48635;SDS011;34429;52.332;5.614;2022-12-05T12:27:50;13.02;;;6.40;;
48635;SDS011;34429;52.332;5.614;2022-12-05T12:30:34;13.35;;;6.80;;
48635;SDS011;34429;52.332;5.614;2022-12-05T12:33:14;13.25;;;7.03;;
48635;SDS011;34429;52.332;5.614;2022-12-05T12:35:54;18.17;;;8.00;;
48635;SDS011;34429;52.332;5.614;2022-12-05T12:38:32;24.80;;;9.88;;
48635;SDS011;34429;52.332;5.614;2022-12-05T12:41:15;16.33;;;7.38;;
48635;SDS011;34429;52.332;5.614;2022-12-05T12:43:57;14.52;;;6.80;;
48635;SDS011;34429;52.332;5.614;2022-12-05T12:46:41;11.60;;;6.90;;
48635;SDS011;34429;52.332;5.614;2022-12-05T12:49:24;12.30;;;6.25;;
48635;SDS011;34429;52.332;5.614;2022-12-05T12:52:09;12.23;;;6.57;;
48635;SDS011;34429;52.332;5.614;2022-12-05T12:57:43;12.45;;;5.70;;
48635;SDS011;34429;52.332;5.614;2022-12-05T13:00:23;10.63;;;5.10;;
48635;SDS011;34429;52.332;5.614;2022-12-05T13:03:01;12.70;;;5.68;;
48635;SDS011;34429;52.332;5.614;2022-12-05T13:05:33;14.93;;;6.00;;
48635;SDS011;34429;52.332;5.614;2022-12-05T13:08:09;10.85;;;5.97;;
48635;SDS011;34429;52.332;5.614;2022-12-05T13:10:41;11.25;;;5.68;;
48635;SDS011;34429;52.332;5.614;2022-12-05T13:13:13;12.00;;;6.10;;
48635;SDS011;34429;52.332;5.614;2022-12-05T13:15:45;13.60;;;6.20;;
48635;SDS011;34429;52.332;5.614;2022-12-05T13:18:20;10.57;;;5.65;;
48635;SDS011;34429;52.332;5.614;2022-12-05T13:20:50;14.18;;;6.57;;
48635;SDS011;34429;52.332;5.614;2022-12-05T13:23:21;12.07;;;6.15;;
48635;SDS011;34429;52.332;5.614;2022-12-05T13:25:53;14.13;;;6.40;;
48635;SDS011;34429;52.332;5.614;2022-12-05T13:28:27;10.73;;;5.63;;
48635;SDS011;34429;52.332;5.614;2022-12-05T13:30:57;14.60;;;6.45;;
48635;SDS011;34429;52.332;5.614;2022-12-05T13:33:34;8.93;;;5.15;;
48635;SDS011;34429;52.332;5.614;2022-12-05T13:36:09;11.05;;;5.78;;
48635;SDS011;34429;52.332;5.614;2022-12-05T13:38:55;14.40;;;6.20;;
48635;SDS011;34429;52.332;5.614;2022-12-05T13:41:38;12.02;;;6.20;;
48635;SDS011;34429;52.332;5.614;2022-12-05T13:44:23;10.63;;;5.93;;
48635;SDS011;34429;52.332;5.614;2022-12-05T13:46:57;9.73;;;5.22;;
48635;SDS011;34429;52.332;5.614;2022-12-05T13:49:35;11.30;;;5.32;;
48635;SDS011;34429;52.332;5.614;2022-12-05T13:52:11;11.90;;;6.53;;
48635;SDS011;34429;52.332;5.614;2022-12-05T13:54:43;11.68;;;6.40;;
48635;SDS011;34429;52.332;5.614;2022-12-05T14:00:21;12.65;;;6.57;;
48635;SDS011;34429;52.332;5.614;2022-12-05T14:02:52;18.52;;;7.28;;
48635;SDS011;34429;52.332;5.614;2022-12-05T14:05:40;14.35;;;6.93;;
48635;SDS011;34429;52.332;5.614;2022-12-05T14:11:20;21.08;;;8.75;;
48635;SDS011;34429;52.332;5.614;2022-12-05T14:13:49;13.23;;;6.57;;
48635;SDS011;34429;52.332;5.614;2022-12-05T14:19:28;10.95;;;5.13;;
48635;SDS011;34429;52.332;5.614;2022-12-05T14:22:30;14.45;;;6.10;;
48635;SDS011;34429;52.332;5.614;2022-12-05T14:25:25;10.55;;;5.57;;
48635;SDS011;34429;52.332;5.614;2022-12-05T14:28:04;21.40;;;7.95;;
48635;SDS011;34429;52.332;5.614;2022-12-05T14:30:51;11.45;;;5.50;;
48635;SDS011;34429;52.332;5.614;2022-12-05T14:33:38;10.32;;;4.90;;
48635;SDS011;34429;52.332;5.614;2022-12-05T14:36:07;13.93;;;6.60;;
48635;SDS011;34429;52.332;5.614;2022-12-05T14:38:45;12.90;;;5.68;;
48635;SDS011;34429;52.332;5.614;2022-12-05T14:41:15;12.20;;;4.82;;
48635;SDS011;34429;52.332;5.614;2022-12-05T14:43:50;11.65;;;5.50;;
48635;SDS011;34429;52.332;5.614;2022-12-05T14:46:21;11.30;;;5.85;;
48635;SDS011;34429;52.332;5.614;2022-12-05T14:48:52;8.35;;;4.88;;
48635;SDS011;34429;52.332;5.614;2022-12-05T14:54:14;9.63;;;4.70;;
48635;SDS011;34429;52.332;5.614;2022-12-05T14:56:45;10.13;;;4.75;;
48635;SDS011;34429;52.332;5.614;2022-12-05T14:59:20;12.15;;;5.63;;
48635;SDS011;34429;52.332;5.614;2022-12-05T15:01:53;8.32;;;5.28;;
48635;SDS011;34429;52.332;5.614;2022-12-05T15:04:27;10.07;;;5.00;;
48635;SDS011;34429;52.332;5.614;2022-12-05T15:07:02;10.50;;;5.15;;
48635;SDS011;34429;52.332;5.614;2022-12-05T15:09:49;12.90;;;6.07;;
48635;SDS011;34429;52.332;5.614;2022-12-05T15:12:24;8.23;;;4.70;;
48635;SDS011;34429;52.332;5.614;2022-12-05T15:15:04;9.80;;;6.60;;
48635;SDS011;34429;52.332;5.614;2022-12-05T15:17:43;8.02;;;4.72;;
48635;SDS011;34429;52.332;5.614;2022-12-05T15:20:15;8.50;;;4.90;;
48635;SDS011;34429;52.332;5.614;2022-12-05T15:22:47;8.88;;;5.38;;
48635;SDS011;34429;52.332;5.614;2022-12-05T15:25:28;8.15;;;4.65;;
48635;SDS011;34429;52.332;5.614;2022-12-05T15:27:59;9.00;;;5.30;;
48635;SDS011;34429;52.332;5.614;2022-12-05T15:30:29;8.63;;;4.22;;
48635;SDS011;34429;52.332;5.614;2022-12-05T15:32:59;8.40;;;4.63;;
48635;SDS011;34429;52.332;5.614;2022-12-05T15:35:29;5.95;;;3.67;;
48635;SDS011;34429;52.332;5.614;2022-12-05T15:38:01;8.43;;;4.45;;
48635;SDS011;34429;52.332;5.614;2022-12-05T15:40:37;7.93;;;4.35;;
48635;SDS011;34429;52.332;5.614;2022-12-05T15:43:22;11.27;;;5.50;;